createdAt,value
2023-01-05T00:01:07.477Z,-2.43
2023-01-05T00:06:13.137Z,-2.41
2023-01-05T00:11:40.119Z,-2.62
2023-01-05T00:17:01.891Z,-2.35
2023-01-05T00:22:32.501Z,-2.41
2023-01-05T00:27:35.550Z,-2.56
2023-01-05T00:32:38.453Z,-2.47
2023-01-05T00:37:41.351Z,-2.57
2023-01-05T00:42:44.318Z,-2.57
2023-01-05T00:47:46.873Z,-2.61
2023-01-05T00:52:49.946Z,-2.62
2023-01-05T00:57:52.585Z,-2.59
2023-01-05T01:02:55.325Z,-2.43
2023-01-05T01:07:58.350Z,-2.46
2023-01-05T01:13:00.906Z,-2.48
2023-01-05T01:18:03.536Z,-2.56
2023-01-05T01:23:06.064Z,-2.70
2023-01-05T01:28:08.630Z,-2.73
2023-01-05T01:33:11.153Z,-2.94
2023-01-05T01:38:13.778Z,-2.92
2023-01-05T01:43:38.163Z,-2.92
2023-01-05T01:48:51.587Z,-2.78
2023-01-05T01:54:03.119Z,-2.66
2023-01-05T01:59:06.822Z,-2.68
2023-01-05T02:04:11.158Z,-2.76
2023-01-05T02:09:13.963Z,-2.88
2023-01-05T02:14:49.176Z,-2.72
2023-01-05T02:20:22.472Z,-2.80
2023-01-05T02:25:47.644Z,-2.85
2023-01-05T02:30:59.876Z,-2.89
2023-01-05T02:36:54.802Z,-2.83
2023-01-05T02:42:17.063Z,-2.90
2023-01-05T02:47:27.700Z,-3.21
2023-01-05T02:52:43.007Z,-3.75
2023-01-05T02:57:56.597Z,-3.95
2023-01-05T03:03:11.786Z,-4.07
2023-01-05T03:08:26.375Z,-3.88
2023-01-05T03:13:41.934Z,-3.91
2023-01-05T03:19:08.796Z,-4.02
2023-01-05T03:24:30.128Z,-4.29
2023-01-05T03:29:51.832Z,-4.30
2023-01-05T03:35:36.330Z,-4.24
2023-01-05T03:40:41.561Z,-4.23
2023-01-05T03:45:56.037Z,-4.34
2023-01-05T03:51:02.099Z,-4.33
2023-01-05T03:56:05.483Z,-4.30
2023-01-05T04:01:08.736Z,-4.32
2023-01-05T04:06:13.223Z,-4.36
2023-01-05T04:11:21.323Z,-4.36
2023-01-05T04:16:37.322Z,-4.32
2023-01-05T04:21:49.408Z,-4.41
2023-01-05T04:26:53.903Z,-4.33
2023-01-05T04:32:00.507Z,-4.43
2023-01-05T04:37:03.156Z,-4.35
2023-01-05T04:42:07.872Z,-4.44
2023-01-05T04:47:10.864Z,-4.43
2023-01-05T04:52:16.493Z,-4.27
2023-01-05T04:57:20.253Z,-4.24
2023-01-05T05:02:24.593Z,-4.17
2023-01-05T05:07:28.306Z,-4.31
2023-01-05T05:12:30.941Z,-4.28
2023-01-05T05:17:33.937Z,-4.39
2023-01-05T05:22:36.739Z,-4.17
2023-01-05T05:27:39.755Z,-4.49
2023-01-05T05:32:44.397Z,-4.31
2023-01-05T05:37:50.126Z,-4.34
2023-01-05T05:42:57.130Z,-4.30
2023-01-05T05:48:01.380Z,-4.27
2023-01-05T05:53:04.078Z,-4.27
2023-01-05T05:58:06.652Z,-4.32
2023-01-05T06:03:09.560Z,-4.23
2023-01-05T06:08:12.110Z,-4.24
2023-01-05T06:13:14.939Z,-4.25
2023-01-05T06:18:18.075Z,-4.32
2023-01-05T06:23:20.656Z,-4.50
2023-01-05T06:28:23.232Z,-4.47
2023-01-05T06:33:25.809Z,-4.28
2023-01-05T06:38:29.463Z,-4.26
2023-01-05T06:43:32.036Z,-4.47
2023-01-05T06:48:34.821Z,-4.50
2023-01-05T06:53:37.316Z,-4.39
2023-01-05T06:58:39.906Z,-3.98
2023-01-05T07:03:42.494Z,-3.57
2023-01-05T07:08:45.173Z,-3.57
2023-01-05T07:13:49.902Z,-3.48
2023-01-05T07:18:52.504Z,-3.61
2023-01-05T07:23:55.238Z,-3.46
2023-01-05T07:28:58.833Z,-3.67
2023-01-05T07:34:01.370Z,-3.61
2023-01-05T07:39:04.353Z,-3.43
2023-01-05T07:44:07.698Z,-3.33
2023-01-05T07:49:10.267Z,-3.19
2023-01-05T07:54:12.832Z,-3.35
2023-01-05T07:59:15.499Z,-3.14
2023-01-05T08:04:18.203Z,-3.22
2023-01-05T08:09:39.417Z,-3.33
2023-01-05T08:14:41.999Z,-3.34
2023-01-05T08:19:44.589Z,-3.34
2023-01-05T08:24:47.701Z,-3.33
2023-01-05T08:29:51.538Z,-3.45
2023-01-05T08:34:55.677Z,-3.39
2023-01-05T08:40:05.371Z,-3.55
2023-01-05T08:45:08.780Z,-3.51
2023-01-05T08:50:14.282Z,-3.48
2023-01-05T08:55:17.077Z,-3.97
2023-01-05T09:00:22.125Z,-3.85
2023-01-05T09:05:27.370Z,-3.73
2023-01-05T09:10:30.003Z,-3.74
2023-01-05T09:15:32.787Z,-3.85
2023-01-05T09:20:39.821Z,-4.79
2023-01-05T09:25:42.822Z,-5.21
2023-01-05T09:30:50.352Z,-5.37
2023-01-05T09:35:55.363Z,-5.59
2023-01-05T09:41:05.060Z,-5.56
2023-01-05T09:46:14.380Z,-5.60
2023-01-05T09:51:17.172Z,-5.54
2023-01-05T09:57:06.898Z,-5.45
2023-01-05T10:01:52.999Z,-5.47
2023-01-05T10:07:11.028Z,-5.62
2023-01-05T10:13:03.370Z,-5.83
2023-01-05T10:18:15.432Z,-5.78
2023-01-05T10:23:50.099Z,-5.71
2023-01-05T10:29:00.263Z,-5.81
2023-01-05T10:34:21.285Z,-5.67
2023-01-05T10:39:56.033Z,-5.44
2023-01-05T10:45:02.593Z,-5.81
2023-01-05T10:50:39.079Z,-6.52
2023-01-05T10:56:04.769Z,-6.19
2023-01-05T11:01:30.627Z,-6.33
2023-01-05T11:06:35.918Z,-6.18
2023-01-05T11:11:39.265Z,-6.33
2023-01-05T11:16:51.008Z,-6.00
2023-01-05T11:21:59.764Z,-5.94
2023-01-05T11:27:24.300Z,-6.38
2023-01-05T11:32:26.956Z,-6.42
2023-01-05T11:37:31.256Z,-6.83
2023-01-05T11:42:36.491Z,-6.68
2023-01-05T11:47:49.168Z,-6.68
2023-01-05T11:52:57.040Z,-6.71
2023-01-05T11:58:18.053Z,-6.77
2023-01-05T12:03:27.224Z,-6.94
2023-01-05T12:08:32.811Z,-6.98
2023-01-05T12:14:12.252Z,-7.24
2023-01-05T12:19:36.404Z,-7.32
2023-01-05T12:24:45.677Z,-7.58
2023-01-05T12:35:37.437Z,-8.03
2023-01-05T12:40:58.278Z,-8.08
2023-01-05T12:46:24.620Z,-8.14
2023-01-05T12:51:35.274Z,-8.23
2023-01-05T12:56:40.373Z,-8.46
2023-01-05T13:02:07.754Z,-8.39
2023-01-05T13:07:20.300Z,-8.48
2023-01-05T13:12:23.840Z,-8.69
2023-01-05T13:17:33.120Z,-8.87
2023-01-05T13:22:40.773Z,-8.83
2023-01-05T13:27:43.636Z,-8.99
2023-01-05T13:32:59.026Z,-9.26
2023-01-05T13:38:07.746Z,-9.31
2023-01-05T13:43:19.225Z,-9.39
2023-01-05T13:48:25.607Z,-9.49
2023-01-05T13:53:41.626Z,-9.69
2023-01-05T13:58:46.155Z,-9.77
2023-01-05T14:03:52.680Z,-9.87
2023-01-05T14:09:14.733Z,-9.99
2023-01-05T14:24:47.942Z,-10.09
2023-01-05T14:35:12.449Z,-9.99
2023-01-05T14:40:30.751Z,-9.81
2023-01-05T14:45:37.155Z,-9.66
2023-01-05T14:50:42.973Z,-9.57
2023-01-05T14:55:51.628Z,-9.56
2023-01-05T15:01:01.805Z,-9.67
2023-01-05T15:06:15.016Z,-9.44
2023-01-05T15:11:43.239Z,-9.42
2023-01-05T15:17:06.824Z,-9.56
2023-01-05T15:22:46.881Z,-9.64
2023-01-05T15:28:27.442Z,-9.73
2023-01-05T15:33:48.521Z,-9.68
2023-01-05T15:38:51.182Z,-9.84
2023-01-05T15:43:57.005Z,-9.91
2023-01-05T15:49:02.452Z,-9.77
2023-01-05T15:54:05.629Z,-10.06
2023-01-05T15:59:26.792Z,-10.17
2023-01-05T16:04:29.464Z,-10.34
2023-01-05T16:09:39.047Z,-10.32
2023-01-05T16:14:45.820Z,-10.48
2023-01-05T16:19:58.623Z,-10.50
2023-01-05T16:25:20.146Z,-10.48
2023-01-05T16:30:36.217Z,-10.61
2023-01-05T16:35:55.667Z,-11.28
2023-01-05T16:41:25.715Z,-11.39
2023-01-05T16:46:37.398Z,-11.59
2023-01-05T16:51:41.790Z,-11.76
2023-01-05T16:56:53.500Z,-11.60
2023-01-05T17:01:56.158Z,-11.92
2023-01-05T17:06:59.255Z,-11.89
2023-01-05T17:12:01.936Z,-11.87
2023-01-05T17:17:07.475Z,-11.83
2023-01-05T17:22:12.656Z,-11.76
2023-01-05T17:27:15.714Z,-12.09
2023-01-05T17:32:18.423Z,-12.02
2023-01-05T17:37:21.039Z,-12.27
2023-01-05T17:42:42.534Z,-12.37
2023-01-05T17:47:45.892Z,-12.33
2023-01-05T17:52:51.843Z,-12.56
2023-01-05T17:58:02.164Z,-12.72
2023-01-05T18:03:04.750Z,-12.83
2023-01-05T18:08:07.896Z,-12.83
2023-01-05T18:13:11.221Z,-12.88
2023-01-05T18:18:16.307Z,-13.14
2023-01-05T18:23:25.371Z,-13.27
2023-01-05T18:28:28.271Z,-13.66
2023-01-05T18:33:30.871Z,-13.76
2023-01-05T18:38:33.516Z,-13.70
2023-01-05T18:43:36.279Z,-13.76
2023-01-05T18:48:39.065Z,-13.50
2023-01-05T18:53:41.665Z,-13.69
2023-01-05T18:58:44.620Z,-13.79
2023-01-05T19:03:47.996Z,-14.06
2023-01-05T19:08:51.808Z,-13.82
2023-01-05T19:13:56.393Z,-13.58
2023-01-05T19:19:05.265Z,-13.57
2023-01-05T19:24:18.331Z,-13.87
2023-01-05T19:29:21.444Z,-14.10
2023-01-05T19:34:24.183Z,-14.54
2023-01-05T19:39:27.268Z,-14.87
2023-01-05T19:44:29.921Z,-15.03
2023-01-05T19:49:32.704Z,-15.08
2023-01-05T19:54:35.797Z,-15.58
2023-01-05T19:59:38.511Z,-15.53
2023-01-05T20:04:42.609Z,-15.68
2023-01-05T20:09:45.965Z,-15.67
2023-01-05T20:14:48.561Z,-15.90
2023-01-05T20:19:51.239Z,-16.05
2023-01-05T20:24:53.897Z,-16.11
2023-01-05T20:29:56.626Z,-16.21
2023-01-05T20:35:00.669Z,-16.50
2023-01-05T20:40:04.560Z,-16.64
2023-01-05T20:45:07.647Z,-16.98
2023-01-05T20:50:10.467Z,-17.32
2023-01-05T20:55:13.072Z,-17.22
2023-01-05T21:00:16.748Z,-17.19
2023-01-05T21:05:19.505Z,-17.06
2023-01-05T21:10:22.096Z,-17.26
2023-01-05T21:15:24.691Z,-17.35
2023-01-05T21:20:27.861Z,-17.22
2023-01-05T21:25:30.517Z,-17.40
2023-01-05T21:30:53.185Z,-17.61
2023-01-05T21:35:56.538Z,-17.72
2023-01-05T21:41:04.437Z,-17.92
2023-01-05T21:46:08.935Z,-18.11
2023-01-05T21:51:30.210Z,-18.23
2023-01-05T21:56:39.551Z,-18.33
2023-01-05T22:01:42.162Z,-18.53
2023-01-05T22:06:45.288Z,-18.67
2023-01-05T22:11:47.810Z,-18.74
2023-01-05T22:16:50.447Z,-18.99
2023-01-05T22:21:53.008Z,-18.98
2023-01-05T22:26:56.215Z,-19.11
2023-01-05T22:32:01.772Z,-19.22
2023-01-05T22:37:05.197Z,-19.28
2023-01-05T22:42:08.082Z,-19.45
2023-01-05T22:47:10.684Z,-19.60
2023-01-05T22:52:13.255Z,-19.74
2023-01-05T22:57:15.895Z,-19.85
2023-01-05T23:02:18.496Z,-19.89
2023-01-05T23:07:23.277Z,-19.98
2023-01-05T23:12:25.953Z,-20.06
2023-01-05T23:17:28.726Z,-20.15
2023-01-05T23:22:31.296Z,-20.19
2023-01-05T23:27:33.875Z,-20.40
2023-01-05T23:32:37.087Z,-20.48
2023-01-05T23:37:39.699Z,-20.37
2023-01-05T23:42:46.352Z,-20.65
2023-01-05T23:47:49.003Z,-20.70
2023-01-05T23:52:51.684Z,-20.70
2023-01-05T23:57:54.211Z,-20.74
